createdAt,value
2022-12-09T00:01:45.584Z,78.83
2022-12-09T00:04:14.338Z,78.97
2022-12-09T00:06:42.249Z,79.19
2022-12-09T00:09:15.165Z,79.19
2022-12-09T00:11:43.659Z,79.28
2022-12-09T00:14:12.687Z,79.53
2022-12-09T00:16:42.240Z,79.43
2022-12-09T00:19:10.142Z,79.53
2022-12-09T00:21:38.133Z,79.54
2022-12-09T00:24:08.980Z,79.49
2022-12-09T00:26:37.039Z,78.92
2022-12-09T00:29:05.634Z,78.69
2022-12-09T00:31:36.081Z,78.95
2022-12-09T00:34:07.767Z,78.78
2022-12-09T00:36:38.890Z,78.41
2022-12-09T00:39:07.056Z,78.11
2022-12-09T00:41:35.371Z,77.64
2022-12-09T00:44:03.263Z,77.40
2022-12-09T00:46:31.151Z,76.70
2022-12-09T00:48:59.213Z,75.53
2022-12-09T00:51:28.613Z,76.30
2022-12-09T00:53:57.116Z,76.04
2022-12-09T00:56:28.199Z,76.09
2022-12-09T00:58:57.045Z,75.96
2022-12-09T01:01:26.851Z,75.35
2022-12-09T01:03:55.303Z,75.48
2022-12-09T01:06:25.764Z,75.90
2022-12-09T01:08:55.261Z,75.33
2022-12-09T01:11:26.093Z,75.44
2022-12-09T01:13:57.738Z,75.19
2022-12-09T01:16:27.558Z,75.03
2022-12-09T01:18:59.503Z,74.85
2022-12-09T01:21:28.051Z,74.88
2022-12-09T01:23:57.506Z,74.92
2022-12-09T01:26:25.704Z,74.40
2022-12-09T01:28:55.395Z,74.37
2022-12-09T01:31:25.271Z,73.97
2022-12-09T01:33:58.186Z,73.83
2022-12-09T01:36:29.100Z,73.68
2022-12-09T01:39:01.939Z,73.57
2022-12-09T01:41:30.188Z,73.92
2022-12-09T01:44:09.835Z,73.67
2022-12-09T01:46:38.171Z,73.62
2022-12-09T01:49:08.639Z,73.58
2022-12-09T01:51:38.116Z,73.45
2022-12-09T01:54:10.465Z,73.87
2022-12-09T01:56:41.557Z,73.84
2022-12-09T01:59:13.518Z,73.70
2022-12-09T02:01:44.272Z,73.52
2022-12-09T02:04:12.936Z,73.51
2022-12-09T02:06:41.159Z,73.32
2022-12-09T02:09:13.319Z,73.24
2022-12-09T02:11:59.068Z,73.74
2022-12-09T02:14:32.635Z,73.32
2022-12-09T02:17:17.981Z,73.32
2022-12-09T02:20:01.467Z,73.48
2022-12-09T02:22:34.240Z,73.55
2022-12-09T02:25:13.354Z,73.32
2022-12-09T02:27:49.142Z,73.15
2022-12-09T02:30:21.412Z,73.34
2022-12-09T02:33:35.454Z,73.04
2022-12-09T02:36:10.439Z,73.04
2022-12-09T02:38:42.084Z,73.63
2022-12-09T02:41:17.826Z,73.76
2022-12-09T02:43:52.009Z,73.29
2022-12-09T02:46:26.863Z,73.73
2022-12-09T02:48:59.445Z,73.25
2022-12-09T02:51:35.520Z,73.97
2022-12-09T02:54:09.958Z,73.47
2022-12-09T02:56:41.864Z,73.65
2022-12-09T02:59:10.337Z,73.12
2022-12-09T03:01:46.586Z,73.76
2022-12-09T03:04:20.079Z,73.46
2022-12-09T03:06:53.688Z,73.75
2022-12-09T03:09:26.536Z,73.18
2022-12-09T03:11:57.028Z,73.55
2022-12-09T03:14:30.793Z,73.71
2022-12-09T03:17:04.100Z,73.78
2022-12-09T03:19:37.247Z,73.72
2022-12-09T03:22:09.884Z,73.72
2022-12-09T03:24:43.003Z,73.86
2022-12-09T03:27:16.946Z,73.46
2022-12-09T03:29:48.236Z,73.05
2022-12-09T03:32:22.504Z,73.62
2022-12-09T03:34:55.857Z,73.24
2022-12-09T03:37:25.553Z,73.31
2022-12-09T03:39:56.626Z,73.48
2022-12-09T03:42:32.490Z,73.48
2022-12-09T03:45:05.043Z,73.19
2022-12-09T03:47:34.900Z,73.32
2022-12-09T03:50:06.771Z,72.89
2022-12-09T03:52:41.514Z,72.95
2022-12-09T03:55:13.466Z,73.22
2022-12-09T03:57:44.278Z,72.74
2022-12-09T04:00:13.490Z,73.45
2022-12-09T04:02:41.800Z,73.45
2022-12-09T04:05:10.509Z,73.99
2022-12-09T04:07:40.292Z,73.34
2022-12-09T04:10:09.564Z,73.09
2022-12-09T04:12:37.627Z,73.52
2022-12-09T04:15:06.612Z,73.09
2022-12-09T04:17:34.501Z,73.60
2022-12-09T04:20:02.631Z,73.42
2022-12-09T04:22:31.854Z,73.00
2022-12-09T04:25:01.418Z,73.13
2022-12-09T04:27:29.455Z,73.14
2022-12-09T04:29:57.544Z,72.70
2022-12-09T04:32:27.499Z,73.22
2022-12-09T04:34:55.538Z,73.07
2022-12-09T04:37:23.788Z,72.81
2022-12-09T04:39:52.001Z,72.66
2022-12-09T04:42:21.342Z,72.70
2022-12-09T04:44:49.210Z,72.80
2022-12-09T04:47:17.994Z,73.23
2022-12-09T04:49:45.950Z,73.09
2022-12-09T04:52:13.833Z,73.18
2022-12-09T04:54:41.792Z,72.94
2022-12-09T04:57:09.841Z,72.82
2022-12-09T04:59:39.497Z,73.28
2022-12-09T05:02:07.863Z,73.10
2022-12-09T05:04:36.054Z,72.77
2022-12-09T05:07:04.269Z,72.95
2022-12-09T05:09:32.963Z,72.96
2022-12-09T05:12:01.110Z,72.87
2022-12-09T05:14:29.637Z,72.93
2022-12-09T05:16:58.956Z,72.94
2022-12-09T05:19:27.206Z,72.65
2022-12-09T05:21:55.303Z,73.21
2022-12-09T05:24:23.671Z,72.91
2022-12-09T05:26:51.925Z,73.01
2022-12-09T05:29:23.043Z,73.43
2022-12-09T05:31:52.587Z,73.13
2022-12-09T05:34:22.162Z,73.12
2022-12-09T05:36:52.017Z,73.05
2022-12-09T05:39:20.441Z,73.28
2022-12-09T05:41:48.534Z,73.35
2022-12-09T05:44:18.375Z,73.48
2022-12-09T05:46:46.343Z,73.39
2022-12-09T05:49:15.210Z,73.70
2022-12-09T05:51:44.903Z,73.30
2022-12-09T05:54:13.029Z,73.39
2022-12-09T05:56:47.590Z,73.60
2022-12-09T05:59:16.284Z,73.52
2022-12-09T06:01:44.573Z,73.37
2022-12-09T06:04:12.829Z,73.42
2022-12-09T06:06:41.504Z,73.50
2022-12-09T06:09:12.172Z,73.37
2022-12-09T06:11:41.203Z,73.58
2022-12-09T06:14:11.344Z,73.30
2022-12-09T06:16:39.778Z,73.74
2022-12-09T06:19:08.154Z,73.63
2022-12-09T06:21:36.432Z,73.41
2022-12-09T06:24:06.290Z,73.18
2022-12-09T06:26:36.265Z,73.45
2022-12-09T06:29:04.840Z,73.56
2022-12-09T06:31:32.793Z,73.89
2022-12-09T06:34:01.973Z,73.52
2022-12-09T06:36:32.762Z,73.98
2022-12-09T06:39:09.670Z,73.78
2022-12-09T06:41:42.133Z,73.78
2022-12-09T06:44:14.301Z,73.99
2022-12-09T06:46:45.152Z,73.75
2022-12-09T06:49:13.616Z,74.16
2022-12-09T06:51:41.710Z,73.97
2022-12-09T06:54:10.347Z,73.77
2022-12-09T06:56:39.948Z,73.58
2022-12-09T06:59:09.325Z,73.76
2022-12-09T07:01:38.703Z,73.81
2022-12-09T07:04:08.351Z,73.72
2022-12-09T07:06:39.118Z,74.00
2022-12-09T07:09:10.549Z,73.91
2022-12-09T07:11:40.468Z,74.55
2022-12-09T07:14:08.792Z,74.50
2022-12-09T07:16:37.702Z,74.09
2022-12-09T07:19:07.811Z,73.54
2022-12-09T07:21:35.869Z,73.97
2022-12-09T07:24:04.700Z,74.09
2022-12-09T07:26:33.749Z,74.07
2022-12-09T07:29:05.346Z,73.88
2022-12-09T07:31:35.574Z,73.41
2022-12-09T07:34:05.805Z,73.32
2022-12-09T07:36:35.881Z,73.27
2022-12-09T07:39:07.884Z,73.86
2022-12-09T07:41:36.273Z,73.17
2022-12-09T07:44:06.252Z,73.53
2022-12-09T07:46:34.851Z,73.07
2022-12-09T07:49:04.630Z,73.04
2022-12-09T07:51:33.355Z,73.00
2022-12-09T07:54:01.812Z,73.46
2022-12-09T07:56:30.225Z,73.19
2022-12-09T07:59:00.142Z,73.56
2022-12-09T08:01:31.053Z,73.57
2022-12-09T08:03:59.376Z,73.13
2022-12-09T08:06:29.453Z,72.30
2022-12-09T08:08:59.626Z,73.00
2022-12-09T08:11:30.355Z,72.96
2022-12-09T08:14:02.780Z,72.72
2022-12-09T08:16:35.787Z,72.68
2022-12-09T08:19:04.352Z,72.51
2022-12-09T08:21:34.371Z,72.80
2022-12-09T08:24:05.907Z,72.86
2022-12-09T08:26:37.588Z,72.85
2022-12-09T08:29:09.149Z,72.29
2022-12-09T08:31:41.949Z,72.65
2022-12-09T08:34:11.114Z,73.13
2022-12-09T08:36:39.403Z,72.81
2022-12-09T08:39:07.875Z,72.42
2022-12-09T08:41:38.608Z,72.38
2022-12-09T08:44:09.081Z,72.24
2022-12-09T08:46:40.948Z,72.65
2022-12-09T08:49:10.058Z,72.59
2022-12-09T08:51:38.177Z,72.42
2022-12-09T08:54:06.940Z,72.39
2022-12-09T08:56:35.251Z,72.84
2022-12-09T08:59:04.007Z,72.64
2022-12-09T09:01:34.902Z,72.47
2022-12-09T09:04:07.584Z,71.63
2022-12-09T09:06:36.537Z,71.80
2022-12-09T09:09:05.800Z,71.83
2022-12-09T09:11:34.651Z,72.23
2022-12-09T09:14:04.952Z,71.66
2022-12-09T09:16:33.700Z,71.77
2022-12-09T09:19:03.756Z,71.93
2022-12-09T09:21:33.872Z,72.20
2022-12-09T09:24:02.339Z,71.51
2022-12-09T09:26:31.034Z,72.46
2022-12-09T09:28:59.302Z,71.89
2022-12-09T09:31:27.543Z,72.62
2022-12-09T09:33:55.907Z,71.81
2022-12-09T09:36:25.899Z,72.17
2022-12-09T09:38:57.572Z,72.80
2022-12-09T09:41:35.640Z,72.43
2022-12-09T09:44:04.665Z,72.81
2022-12-09T09:46:38.890Z,73.39
2022-12-09T09:49:17.493Z,72.72
2022-12-09T09:51:46.824Z,73.10
2022-12-09T09:54:16.769Z,73.60
2022-12-09T09:56:55.068Z,73.08
2022-12-09T09:59:34.392Z,73.67
2022-12-09T10:02:19.406Z,73.78
2022-12-09T10:05:00.148Z,73.71
2022-12-09T10:07:34.822Z,73.41
2022-12-09T10:10:17.762Z,73.45
2022-12-09T10:13:08.071Z,73.41
2022-12-09T10:15:43.030Z,74.24
2022-12-09T10:18:21.058Z,74.39
2022-12-09T10:20:49.813Z,74.45
2022-12-09T10:23:19.186Z,74.71
2022-12-09T10:25:53.888Z,75.40
2022-12-09T10:28:24.719Z,75.15
2022-12-09T10:30:55.753Z,74.99
2022-12-09T10:33:28.360Z,74.55
2022-12-09T10:35:56.938Z,75.63
2022-12-09T10:38:26.741Z,75.43
2022-12-09T10:41:02.943Z,74.95
2022-12-09T10:43:38.902Z,73.85
2022-12-09T10:46:19.944Z,74.45
2022-12-09T10:48:55.998Z,74.95
2022-12-09T10:51:27.012Z,74.35
2022-12-09T10:53:59.074Z,75.01
2022-12-09T10:56:35.065Z,74.86
2022-12-09T10:59:12.735Z,74.93
2022-12-09T11:01:50.648Z,74.38
2022-12-09T11:04:24.193Z,75.27
2022-12-09T11:06:59.476Z,74.43
2022-12-09T11:09:32.211Z,74.83
2022-12-09T11:12:03.443Z,74.99
2022-12-09T11:14:35.969Z,75.76
2022-12-09T11:17:15.536Z,75.52
2022-12-09T11:19:51.436Z,75.56
2022-12-09T11:22:28.405Z,75.87
2022-12-09T11:25:13.021Z,76.37
2022-12-09T11:27:53.006Z,76.25
2022-12-09T11:30:24.848Z,76.45
2022-12-09T11:33:21.270Z,77.46
2022-12-09T11:35:55.948Z,77.34
2022-12-09T11:38:32.667Z,77.04
2022-12-09T11:41:05.416Z,76.89
2022-12-09T11:43:39.752Z,76.67
2022-12-09T11:46:18.812Z,77.27
2022-12-09T11:48:52.583Z,78.07
2022-12-09T11:51:23.916Z,78.08
2022-12-09T11:53:56.616Z,78.85
2022-12-09T11:56:28.775Z,79.18
2022-12-09T11:59:04.649Z,78.98
2022-12-09T12:01:46.505Z,78.71
2022-12-09T12:04:18.579Z,79.83
2022-12-09T12:06:50.205Z,79.80
2022-12-09T12:09:28.561Z,80.29
2022-12-09T12:12:04.015Z,80.33
2022-12-09T12:14:36.815Z,80.67
2022-12-09T12:17:10.478Z,80.55
2022-12-09T12:19:41.285Z,81.63
2022-12-09T12:22:54.344Z,81.31
2022-12-09T12:25:41.142Z,81.39
2022-12-09T12:28:46.000Z,80.46
2022-12-09T12:31:30.970Z,79.87
2022-12-09T12:34:24.470Z,79.72
2022-12-09T12:37:03.239Z,79.35
2022-12-09T12:39:44.845Z,79.40
2022-12-09T12:42:26.218Z,79.98
2022-12-09T12:45:21.438Z,79.15
2022-12-09T12:48:00.630Z,78.04
2022-12-09T12:50:51.689Z,78.11
2022-12-09T12:53:31.674Z,77.72
2022-12-09T12:56:04.034Z,77.51
2022-12-09T12:58:45.783Z,78.15
2022-12-09T13:01:21.686Z,79.48
2022-12-09T13:04:02.053Z,80.28
2022-12-09T13:06:39.345Z,81.43
2022-12-09T13:09:13.394Z,81.73
2022-12-09T13:11:52.156Z,82.37
2022-12-09T13:14:23.976Z,82.45
2022-12-09T13:16:53.827Z,82.79
2022-12-09T13:19:32.243Z,82.50
2022-12-09T13:22:00.397Z,82.41
2022-12-09T13:24:37.766Z,82.66
2022-12-09T13:27:09.635Z,82.82
2022-12-09T13:29:44.050Z,83.07
2022-12-09T13:32:22.261Z,83.40
2022-12-09T13:34:55.132Z,83.05
2022-12-09T13:38:02.233Z,83.05
2022-12-09T13:40:35.272Z,83.26
2022-12-09T13:43:12.874Z,83.82
2022-12-09T13:45:50.389Z,84.08
2022-12-09T13:48:48.984Z,83.48
2022-12-09T13:51:19.138Z,84.24
2022-12-09T13:53:51.256Z,84.21
2022-12-09T13:56:26.969Z,84.87
2022-12-09T13:59:21.222Z,85.06
2022-12-09T14:01:52.012Z,84.58
2022-12-09T14:04:25.559Z,85.08
2022-12-09T14:07:10.269Z,84.68
2022-12-09T14:09:48.238Z,84.79
2022-12-09T14:12:54.394Z,84.94
2022-12-09T14:15:37.542Z,85.15
2022-12-09T14:18:27.319Z,85.65
2022-12-09T14:21:38.073Z,85.58
2022-12-09T14:24:32.412Z,85.26
2022-12-09T14:27:18.338Z,84.35
2022-12-09T14:29:49.329Z,84.06
2022-12-09T14:32:29.082Z,84.51
2022-12-09T14:35:19.358Z,85.14
2022-12-09T14:38:03.269Z,84.86
2022-12-09T14:40:39.869Z,84.90
2022-12-09T14:43:28.297Z,84.79
2022-12-09T14:46:02.598Z,84.94
2022-12-09T14:48:33.775Z,85.14
2022-12-09T14:51:15.781Z,85.65
2022-12-09T14:53:45.339Z,85.25
2022-12-09T14:56:19.722Z,85.58
2022-12-09T14:58:50.200Z,85.67
2022-12-09T15:01:22.087Z,85.09
2022-12-09T15:04:00.279Z,85.03
2022-12-09T15:06:28.375Z,84.94
2022-12-09T15:08:58.492Z,84.71
2022-12-09T15:11:31.508Z,85.07
2022-12-09T15:14:24.400Z,85.75
2022-12-09T15:16:52.593Z,86.02
2022-12-09T15:19:57.957Z,85.37
2022-12-09T15:22:21.884Z,85.63
2022-12-09T15:24:51.134Z,85.63
2022-12-09T15:27:23.958Z,85.81
2022-12-09T15:29:53.549Z,85.97
2022-12-09T15:32:25.376Z,86.23
2022-12-09T15:34:54.352Z,86.14
2022-12-09T15:37:27.379Z,86.40
2022-12-09T15:40:01.283Z,86.50
2022-12-09T15:42:33.558Z,85.96
2022-12-09T15:45:07.710Z,86.10
2022-12-09T15:47:39.960Z,86.37
2022-12-09T15:50:18.390Z,87.16
2022-12-09T15:52:51.538Z,86.82
2022-12-09T15:55:22.723Z,87.15
2022-12-09T15:57:55.539Z,86.89
2022-12-09T16:00:23.739Z,87.57
2022-12-09T16:02:52.135Z,87.86
2022-12-09T16:05:25.793Z,88.40
2022-12-09T16:07:58.498Z,88.22
2022-12-09T16:10:27.652Z,88.50
2022-12-09T16:13:08.904Z,88.43
2022-12-09T16:15:51.305Z,88.61
2022-12-09T16:18:22.996Z,89.05
2022-12-09T16:21:01.164Z,88.96
2022-12-09T16:23:29.772Z,89.19
2022-12-09T16:26:06.327Z,88.88
2022-12-09T16:28:36.716Z,89.37
2022-12-09T16:31:18.506Z,89.43
2022-12-09T16:33:49.640Z,90.03
2022-12-09T16:36:21.986Z,90.24
2022-12-09T16:39:25.915Z,89.99
2022-12-09T16:42:01.648Z,90.44
2022-12-09T16:44:34.476Z,89.84
2022-12-09T16:47:16.118Z,89.29
2022-12-09T16:49:46.786Z,89.06
2022-12-09T16:52:16.500Z,89.52
2022-12-09T16:54:46.769Z,89.46
2022-12-09T16:57:15.910Z,89.51
2022-12-09T16:59:45.847Z,89.60
2022-12-09T17:02:22.565Z,89.87
2022-12-09T17:04:52.330Z,90.17
2022-12-09T17:07:20.284Z,90.45
2022-12-09T17:09:48.325Z,90.57
2022-12-09T17:12:16.402Z,90.53
2022-12-09T17:14:45.742Z,90.65
2022-12-09T17:17:13.674Z,90.84
2022-12-09T17:19:42.075Z,91.02
2022-12-09T17:22:10.278Z,90.46
2022-12-09T17:24:38.424Z,90.69
2022-12-09T17:27:06.763Z,90.78
2022-12-09T17:29:34.613Z,90.35
2022-12-09T17:32:04.001Z,90.29
2022-12-09T17:34:31.982Z,90.49
2022-12-09T17:36:59.829Z,90.40
2022-12-09T17:39:27.746Z,90.29
2022-12-09T17:41:55.630Z,90.38
2022-12-09T17:44:23.673Z,90.45
2022-12-09T17:46:51.923Z,90.39
2022-12-09T17:49:21.917Z,90.56
2022-12-09T17:51:50.028Z,90.32
2022-12-09T17:54:18.095Z,90.41
2022-12-09T17:56:46.528Z,90.17
2022-12-09T17:59:16.383Z,90.32
2022-12-09T18:01:47.534Z,90.78
2022-12-09T18:04:16.177Z,90.20
2022-12-09T18:06:46.902Z,90.67
2022-12-09T18:09:17.332Z,90.53
2022-12-09T18:11:46.160Z,90.56
2022-12-09T18:14:14.638Z,90.48
2022-12-09T18:16:42.846Z,90.52
2022-12-09T18:19:15.135Z,90.99
2022-12-09T18:21:44.799Z,91.29
2022-12-09T18:24:13.171Z,91.35
2022-12-09T18:26:42.399Z,91.33
2022-12-09T18:29:10.618Z,91.59
2022-12-09T18:31:39.423Z,91.50
2022-12-09T18:34:07.750Z,91.33
2022-12-09T18:36:35.856Z,91.47
2022-12-09T18:39:05.471Z,91.74
2022-12-09T18:41:34.101Z,92.76
2022-12-09T18:44:04.475Z,92.65
2022-12-09T18:46:34.960Z,92.69
2022-12-09T18:49:05.022Z,92.52
2022-12-09T18:51:33.558Z,92.73
2022-12-09T18:54:02.605Z,92.23
2022-12-09T18:56:32.800Z,92.60
2022-12-09T18:59:06.915Z,91.98
2022-12-09T19:01:39.661Z,91.62
2022-12-09T19:04:11.505Z,91.63
2022-12-09T19:06:41.674Z,91.55
2022-12-09T19:09:12.382Z,91.26
2022-12-09T19:11:42.979Z,91.48
2022-12-09T19:14:11.481Z,91.60
2022-12-09T19:16:39.837Z,91.30
2022-12-09T19:19:10.366Z,91.19
2022-12-09T19:21:39.516Z,91.21
2022-12-09T19:24:13.187Z,90.29
2022-12-09T19:26:43.839Z,90.82
2022-12-09T19:29:12.877Z,91.16
2022-12-09T19:31:43.132Z,91.30
2022-12-09T19:34:14.634Z,90.78
2022-12-09T19:36:42.794Z,90.89
2022-12-09T19:39:12.236Z,91.23
2022-12-09T19:41:41.439Z,91.67
2022-12-09T19:44:12.000Z,91.51
2022-12-09T19:46:40.783Z,91.39
2022-12-09T19:49:08.769Z,91.00
2022-12-09T19:51:36.799Z,91.57
2022-12-09T19:54:05.067Z,91.20
2022-12-09T19:56:33.066Z,91.50
2022-12-09T19:59:01.219Z,91.19
2022-12-09T20:01:32.669Z,91.51
2022-12-09T20:04:18.988Z,91.45
2022-12-09T20:06:51.076Z,91.59
2022-12-09T20:09:24.254Z,91.46
2022-12-09T20:11:53.032Z,91.78
2022-12-09T20:14:21.294Z,91.71
2022-12-09T20:16:50.736Z,91.68
2022-12-09T20:19:19.798Z,92.29
2022-12-09T20:21:47.755Z,91.50
2022-12-09T20:24:15.660Z,91.73
2022-12-09T20:26:44.264Z,91.95
2022-12-09T20:29:12.414Z,91.74
2022-12-09T20:31:40.828Z,91.66
2022-12-09T20:34:13.985Z,92.01
2022-12-09T20:36:43.956Z,92.09
2022-12-09T20:39:15.153Z,91.92
2022-12-09T20:41:44.521Z,91.91
2022-12-09T20:44:14.021Z,91.97
2022-12-09T20:46:42.924Z,92.14
2022-12-09T20:49:14.775Z,92.10
2022-12-09T20:51:47.058Z,91.94
2022-12-09T20:54:15.224Z,91.76
2022-12-09T20:56:43.328Z,92.01
2022-12-09T20:59:13.479Z,91.80
2022-12-09T21:01:43.472Z,91.70
2022-12-09T21:04:12.667Z,91.79
2022-12-09T21:06:41.689Z,91.52
2022-12-09T21:09:12.788Z,91.68
2022-12-09T21:11:40.766Z,91.77
2022-12-09T21:14:09.104Z,92.07
2022-12-09T21:16:39.700Z,91.87
2022-12-09T21:19:10.326Z,92.22
2022-12-09T21:21:41.207Z,92.10
2022-12-09T21:24:11.506Z,91.61
2022-12-09T21:26:39.619Z,91.62
2022-12-09T21:29:08.421Z,91.46
2022-12-09T21:31:37.832Z,91.43
2022-12-09T21:34:07.582Z,91.11
2022-12-09T21:36:37.591Z,91.77
2022-12-09T21:39:09.078Z,91.37
2022-12-09T21:41:38.282Z,91.77
2022-12-09T21:44:07.411Z,91.83
2022-12-09T21:46:37.081Z,91.84
2022-12-09T21:49:06.791Z,91.25
2022-12-09T21:51:35.855Z,91.74
2022-12-09T21:54:04.769Z,91.45
2022-12-09T21:56:36.907Z,91.31
2022-12-09T21:59:06.606Z,90.89
2022-12-09T22:01:36.288Z,90.88
2022-12-09T22:04:06.436Z,91.03
2022-12-09T22:06:34.783Z,91.00
2022-12-09T22:09:03.331Z,90.84
2022-12-09T22:11:32.724Z,90.34
2022-12-09T22:14:02.906Z,90.71
2022-12-09T22:16:34.551Z,91.00
2022-12-09T22:19:04.670Z,90.60
2022-12-09T22:21:33.576Z,90.53
2022-12-09T22:24:04.152Z,90.65
2022-12-09T22:26:32.534Z,89.92
2022-12-09T22:29:02.646Z,90.30
2022-12-09T22:31:32.520Z,90.88
2022-12-09T22:34:01.986Z,90.33
2022-12-09T22:36:29.893Z,90.14
2022-12-09T22:38:58.000Z,90.03
2022-12-09T22:41:28.330Z,90.49
2022-12-09T22:43:56.828Z,90.55
2022-12-09T22:46:28.290Z,90.35
2022-12-09T22:48:57.174Z,90.96
2022-12-09T22:51:26.776Z,91.18
2022-12-09T22:53:56.357Z,91.07
2022-12-09T22:56:25.701Z,90.55
2022-12-09T22:58:53.858Z,90.98
2022-12-09T23:01:23.732Z,91.06
2022-12-09T23:03:53.262Z,91.52
2022-12-09T23:06:21.238Z,91.64
2022-12-09T23:08:49.143Z,91.28
2022-12-09T23:11:19.704Z,91.75
2022-12-09T23:13:48.380Z,91.73
2022-12-09T23:16:21.367Z,91.60
2022-12-09T23:18:49.717Z,91.90
2022-12-09T23:21:20.555Z,91.88
2022-12-09T23:23:48.687Z,92.10
2022-12-09T23:26:18.947Z,91.76
2022-12-09T23:28:49.150Z,91.96
2022-12-09T23:31:20.392Z,91.92
2022-12-09T23:33:49.620Z,91.87
2022-12-09T23:36:21.427Z,92.17
2022-12-09T23:38:50.111Z,92.02
2022-12-09T23:41:20.119Z,91.88
2022-12-09T23:43:49.616Z,91.59
2022-12-09T23:46:19.150Z,91.87
2022-12-09T23:48:48.764Z,92.15
2022-12-09T23:51:18.440Z,91.80
2022-12-09T23:53:49.495Z,91.59
2022-12-09T23:56:19.748Z,91.97
2022-12-09T23:58:48.616Z,92.13
